Flugplatz Salzgitter-Drütte (EDVS)

Hier findest Du alle Informationen zum Flugplatz Salzgitter-Drütte (EDVS).

Informationen für Piloten zum Flugplatz Salzgitter-Drütte

Hier findest Du alle relevanten Informationen, die Du als Pilot benötigst, um Salzgitter-Drütte anzufliegen.

Flugplatz: Salzgitter-Drütte ICAO-Code: EDVS
Frequenz Turm: 122,850 Mhz GAFOR Gebiet: 20
Frequenz Ground: 122,850 Mhz Mogas: ja
Platzrunde: NW 1300 ft Landegebühr: -
Platzhöhe: - Sunrise: 07:02 Uhr UTC
Pisten: 07/25 - 555 m x 20 m, ASPH Sunset: 15:12 Uhr UTC

Mitglieder, die in Salzgitter-Drütte fliegen

Flugwetter am Flugplatz Salzgitter-Drütte

Die METAR Information stammen aus EDVE (20.17 km entfernt).

METAR Code:
2022/11/30 12:50
EDVE 301250Z 08005KT 030V100 1600 BR OVC002 05/04 Q1024

Flugschulen am Flugplatz Salzgitter-Drütte

Am Flugplatz Salzgitter-Drütte gibt es leider keine Flugschule.

Benachbarte Flugplätze und Flugschulen

Es gibt 10 weitere Flugplätze in einem Umkreis von 50 km um den Flugplatz Salzgitter-Drütte.

Jetzt anmelden

Passwort vergessen

Umfrage Archiv

Sendet Ihr ADS-B und/oder FLARM?

Ja
84.6 %
Nein
15.4 %
Stimmen: 254 | Diskussion
Anzeige: Roland Aircraft
Statistik Alle Mitglieder

Aktuell sind 39 Besucher online, davon 3 Mitglieder und 36 Gäste.


Mitglieder online:
Bello  Nordex  rcepeda 

Anzeige: ULPower Aero Engines Anzeige: EasyVFR